Time;durP1;ratioP1;P1;durP2;ratioP2;P2;SDS_P1;SDS_P2;PMS_P1;PMS_P2;Temp;Humidity;BMP_temperature;BMP_pressure;BME280_temperature;BME280_humidity;BME280_pressure;Samples;Min_cycle;Max_cycle;Signal;HPM_P1;HPM_P2
2022/08/06 00:01:16;;;;;;;7.67;4.77;;;;;;;;;;5017217;28;20197;-86
2022/08/06 00:04:22;;;;;;;8.43;4.83;;;;;;;;;;5007246;28;20185;-86
2022/08/06 00:07:27;;;;;;;6.20;5.40;;;;;;;;;;5005604;28;20225;-85
2022/08/06 00:10:31;;;;;;;9.90;5.90;;;;;;;;;;4995319;28;20185;-86
2022/08/06 00:13:35;;;;;;;7.63;6.83;;;;;;;;;;4994994;28;20216;-86
2022/08/06 00:16:39;;;;;;;9.00;6.23;;;;;;;;;;5029462;28;20181;-87
2022/08/06 00:19:43;;;;;;;8.17;6.43;;;;;;;;;;5006174;28;20182;-86
2022/08/06 00:22:47;;;;;;;6.73;5.90;;;;;;;;;;5017146;28;20213;-86
2022/08/06 00:25:53;;;;;;;7.33;6.03;;;;;;;;;;5006115;28;20178;-86
2022/08/06 00:28:57;;;;;;;7.97;6.50;;;;;;;;;;5017411;28;20186;-86
2022/08/06 00:32:01;;;;;;;8.00;6.47;;;;;;;;;;5005348;28;20571;-86
2022/08/06 00:35:05;;;;;;;10.17;6.73;;;;;;;;;;4994894;28;20181;-86
2022/08/06 00:38:10;;;;;;;8.53;7.63;;;;;;;;;;5005814;28;20174;-85
2022/08/06 00:41:15;;;;;;;13.53;8.23;;;;;;;;;;5016637;28;20182;-85
2022/08/06 00:44:19;;;;;;;10.43;9.07;;;;;;;;;;5028013;28;20185;-86
2022/08/06 00:47:23;;;;;;;10.23;8.97;;;;;;;;;;5027867;28;20226;-86
2022/08/06 00:50:28;;;;;;;10.63;9.10;;;;;;;;;;5027692;28;20212;-85
2022/08/06 00:53:32;;;;;;;11.37;9.70;;;;;;;;;;5005071;28;20725;-85
2022/08/06 00:56:36;;;;;;;10.17;8.57;;;;;;;;;;5004555;28;20181;-86
2022/08/06 00:59:40;;;;;;;12.30;8.47;;;;;;;;;;5039326;28;20568;-86
2022/08/06 01:02:45;;;;;;;10.90;9.80;;;;;;;;;;5005108;28;20221;-86
2022/08/06 01:05:49;;;;;;;11.40;9.57;;;;;;;;;;5039211;28;20181;-86
2022/08/06 01:08:53;;;;;;;11.33;9.30;;;;;;;;;;5038834;28;20194;-87
2022/08/06 01:11:57;;;;;;;11.33;9.73;;;;;;;;;;5039201;28;20232;-85
2022/08/06 01:15:06;;;;;;;11.10;9.83;;;;;;;;;;5004831;28;20196;-85
2022/08/06 01:18:18;;;;;;;13.13;10.63;;;;;;;;;;5027652;28;20576;-85
2022/08/06 01:21:47;;;;;;;12.07;10.10;;;;;;;;;;5027424;28;20185;-86
2022/08/06 01:25:21;;;;;;;12.00;9.90;;;;;;;;;;5015251;28;20192;-85
2022/08/06 01:28:37;;;;;;;10.03;8.77;;;;;;;;;;5005100;28;20688;-86
2022/08/06 01:31:47;;;;;;;11.77;9.53;;;;;;;;;;5015001;28;20236;-86
2022/08/06 01:34:54;;;;;;;10.87;9.77;;;;;;;;;;5015451;28;20197;-86
2022/08/06 01:38:01;;;;;;;11.90;10.60;;;;;;;;;;5014750;28;20193;-86
2022/08/06 01:41:08;;;;;;;10.67;9.43;;;;;;;;;;5003908;28;20679;-86
2022/08/06 01:44:15;;;;;;;11.80;10.03;;;;;;;;;;5003873;28;20205;-86
2022/08/06 01:47:21;;;;;;;11.13;9.67;;;;;;;;;;5003759;28;20212;-86
2022/08/06 01:50:34;;;;;;;13.30;9.67;;;;;;;;;;5014853;28;20186;-86
2022/08/06 01:53:40;;;;;;;10.90;9.43;;;;;;;;;;5037321;28;20225;-86
2022/08/06 01:56:48;;;;;;;17.03;10.20;;;;;;;;;;5037540;28;20184;-86
2022/08/06 01:59:55;;;;;;;11.07;9.87;;;;;;;;;;5014834;28;20208;-86
2022/08/06 02:03:03;;;;;;;10.43;9.43;;;;;;;;;;5004142;28;20244;-86
2022/08/06 02:06:08;;;;;;;11.20;9.87;;;;;;;;;;5037402;28;20540;-86
2022/08/06 02:09:16;;;;;;;12.10;9.90;;;;;;;;;;5002900;28;20188;-86
2022/08/06 02:12:24;;;;;;;12.73;10.40;;;;;;;;;;5002833;28;20228;-86
2022/08/06 02:15:31;;;;;;;13.13;10.57;;;;;;;;;;5015456;28;20674;-86
2022/08/06 02:18:39;;;;;;;14.47;11.63;;;;;;;;;;5015272;28;20651;-86
2022/08/06 02:21:45;;;;;;;15.70;11.23;;;;;;;;;;5003687;28;20228;-85
2022/08/06 02:24:49;;;;;;;13.53;11.00;;;;;;;;;;5014919;28;20647;-85
2022/08/06 02:27:55;;;;;;;13.93;11.37;;;;;;;;;;5029530;28;20224;-85
2022/08/06 02:31:00;;;;;;;12.97;11.33;;;;;;;;;;5011190;28;20193;-85
2022/08/06 02:34:04;;;;;;;13.53;10.77;;;;;;;;;;5034104;28;20208;-85
2022/08/06 02:37:34;;;;;;;13.07;10.70;;;;;;;;;;5022532;28;20580;-85
2022/08/06 02:40:52;;;;;;;13.97;11.37;;;;;;;;;;5022228;28;20192;-86
2022/08/06 02:44:05;;;;;;;14.70;11.23;;;;;;;;;;5021957;28;20189;-86
2022/08/06 02:47:19;;;;;;;13.20;11.27;;;;;;;;;;5032130;28;20233;-86
2022/08/06 02:50:39;;;;;;;13.10;11.43;;;;;;;;;;5020189;28;20193;-86
2022/08/06 02:54:04;;;;;;;14.17;11.10;;;;;;;;;;5019516;28;20193;-86
2022/08/06 02:57:15;;;;;;;11.73;9.67;;;;;;;;;;5017592;28;20292;-85
2022/08/06 03:00:20;;;;;;;11.40;9.93;;;;;;;;;;5029178;28;20193;-85
2022/08/06 03:03:25;;;;;;;10.40;9.23;;;;;;;;;;5005304;28;20217;-86
2022/08/06 03:06:33;;;;;;;13.00;10.20;;;;;;;;;;5027728;28;20192;-85
2022/08/06 03:09:39;;;;;;;14.60;9.40;;;;;;;;;;5004178;28;20193;-86
2022/08/06 03:12:45;;;;;;;10.20;8.97;;;;;;;;;;5014693;28;20588;-85
2022/08/06 03:15:50;;;;;;;10.20;8.43;;;;;;;;;;5014427;28;20193;-86
2022/08/06 03:18:55;;;;;;;9.67;7.87;;;;;;;;;;4994758;28;20205;-86
2022/08/06 03:22:01;;;;;;;6.80;6.20;;;;;;;;;;4983459;28;20558;-86
2022/08/06 03:25:07;;;;;;;8.97;5.80;;;;;;;;;;4983766;28;20186;-86
2022/08/06 03:28:13;;;;;;;6.77;5.30;;;;;;;;;;4995322;28;20210;-85
2022/08/06 03:31:19;;;;;;;8.70;4.93;;;;;;;;;;4983471;28;20174;-85
2022/08/06 03:34:24;;;;;;;5.57;4.20;;;;;;;;;;4994975;28;20179;-85
2022/08/06 03:37:30;;;;;;;6.47;4.30;;;;;;;;;;4983338;28;20179;-85
2022/08/06 03:40:35;;;;;;;4.43;4.03;;;;;;;;;;4994944;28;20182;-86
2022/08/06 03:43:39;;;;;;;4.40;3.63;;;;;;;;;;4994315;28;20218;-86
2022/08/06 03:46:46;;;;;;;4.83;3.53;;;;;;;;;;4993991;28;20526;-86
2022/08/06 03:50:04;;;;;;;5.43;3.00;;;;;;;;;;4994436;28;20175;-86
2022/08/06 03:53:16;;;;;;;3.93;3.20;;;;;;;;;;4982316;28;20222;-86
2022/08/06 03:56:23;;;;;;;5.97;3.33;;;;;;;;;;5004910;28;20206;-86
2022/08/06 03:59:28;;;;;;;4.23;2.93;;;;;;;;;;4993683;28;20175;-85
2022/08/06 04:02:37;;;;;;;6.87;3.00;;;;;;;;;;4994459;28;20243;-85
2022/08/06 04:05:42;;;;;;;3.17;2.87;;;;;;;;;;4994249;28;20174;-85
2022/08/06 04:08:47;;;;;;;5.07;3.00;;;;;;;;;;4971190;28;20225;-86
2022/08/06 04:11:53;;;;;;;4.90;2.70;;;;;;;;;;4993862;28;20225;-86
2022/08/06 04:14:58;;;;;;;5.37;2.60;;;;;;;;;;4994252;28;20182;-86
2022/08/06 04:18:07;;;;;;;4.83;2.80;;;;;;;;;;4997879;28;20538;-86
2022/08/06 04:21:20;;;;;;;3.43;2.50;;;;;;;;;;4985688;28;20194;-86
2022/08/06 04:24:25;;;;;;;5.73;3.33;;;;;;;;;;4997824;28;20178;-85
2022/08/06 04:27:30;;;;;;;4.13;2.57;;;;;;;;;;4986302;28;20210;-86
2022/08/06 04:30:35;;;;;;;5.00;2.70;;;;;;;;;;4998366;28;20182;-86
2022/08/06 04:33:40;;;;;;;5.97;2.93;;;;;;;;;;4998391;28;20226;-85
2022/08/06 04:36:45;;;;;;;3.43;3.00;;;;;;;;;;4997160;28;20174;-86
2022/08/06 04:39:49;;;;;;;4.53;3.03;;;;;;;;;;4986768;28;20174;-85
2022/08/06 04:42:54;;;;;;;5.40;3.00;;;;;;;;;;4985934;28;20692;-86
2022/08/06 04:45:58;;;;;;;3.87;3.10;;;;;;;;;;5008725;28;20183;-85
2022/08/06 04:49:03;;;;;;;5.40;3.00;;;;;;;;;;4987331;28;20210;-86
2022/08/06 04:52:07;;;;;;;3.43;2.77;;;;;;;;;;5005406;28;20217;-86
2022/08/06 04:55:11;;;;;;;4.17;2.37;;;;;;;;;;4995667;28;20205;-86
2022/08/06 04:58:16;;;;;;;6.60;2.40;;;;;;;;;;5005707;28;20174;-87
2022/08/06 05:01:21;;;;;;;3.07;2.77;;;;;;;;;;5006094;28;20518;-86
2022/08/06 05:04:25;;;;;;;2.47;2.27;;;;;;;;;;5016389;28;20173;-85
2022/08/06 05:07:31;;;;;;;2.90;2.60;;;;;;;;;;5004468;28;20198;-86
2022/08/06 05:10:56;;;;;;;3.77;2.30;;;;;;;;;;5015876;28;20197;-85
2022/08/06 05:14:07;;;;;;;3.47;3.03;;;;;;;;;;5027710;28;20185;-85
2022/08/06 05:17:15;;;;;;;4.73;2.93;;;;;;;;;;5027409;28;20282;-85
2022/08/06 05:20:20;;;;;;;5.07;3.40;;;;;;;;;;5027196;28;20201;-85
2022/08/06 05:23:29;;;;;;;3.40;3.10;;;;;;;;;;5015847;28;20221;-84
2022/08/06 05:26:34;;;;;;;3.83;3.17;;;;;;;;;;5027435;28;20186;-85
2022/08/06 05:29:39;;;;;;;3.97;3.30;;;;;;;;;;5026703;28;20221;-85
2022/08/06 05:32:47;;;;;;;5.13;3.43;;;;;;;;;;5027444;28;20220;-85
2022/08/06 05:35:52;;;;;;;3.43;3.03;;;;;;;;;;5005012;28;20178;-85
2022/08/06 05:38:56;;;;;;;6.47;3.70;;;;;;;;;;5015953;28;20193;-85
2022/08/06 05:42:00;;;;;;;3.63;3.23;;;;;;;;;;5026659;28;20565;-85
2022/08/06 05:45:09;;;;;;;3.73;3.43;;;;;;;;;;5026925;28;20178;-85
2022/08/06 05:48:17;;;;;;;7.27;3.97;;;;;;;;;;5004285;28;20209;-85
2022/08/06 05:51:31;;;;;;;4.93;3.60;;;;;;;;;;5016411;28;20633;-85
2022/08/06 05:54:50;;;;;;;5.47;3.60;;;;;;;;;;5027493;28;20182;-85
2022/08/06 05:58:01;;;;;;;5.00;4.47;;;;;;;;;;5016404;28;20181;-88
2022/08/06 06:01:07;;;;;;;6.33;3.97;;;;;;;;;;5004694;28;20632;-85
2022/08/06 06:04:12;;;;;;;5.67;5.03;;;;;;;;;;5016313;28;20182;-87
2022/08/06 06:07:17;;;;;;;7.33;4.57;;;;;;;;;;5004442;28;20178;-86
2022/08/06 06:10:23;;;;;;;5.50;4.87;;;;;;;;;;5016176;28;20178;-85
2022/08/06 06:13:28;;;;;;;5.93;5.33;;;;;;;;;;5026546;28;20221;-86
2022/08/06 06:17:04;;;;;;;8.30;6.13;;;;;;;;;;5027695;28;20633;-85
2022/08/06 06:20:44;;;;;;;7.37;6.20;;;;;;;;;;5017011;28;20173;-85
2022/08/06 06:24:02;;;;;;;6.70;6.00;;;;;;;;;;5016597;28;20181;-84
2022/08/06 06:27:21;;;;;;;8.13;6.50;;;;;;;;;;5016421;28;20181;-85
2022/08/06 06:30:45;;;;;;;8.33;6.90;;;;;;;;;;4993451;28;20169;-85
2022/08/06 06:34:01;;;;;;;10.13;7.50;;;;;;;;;;5004328;28;20197;-88
2022/08/06 06:37:35;;;;;;;8.27;7.47;;;;;;;;;;5026932;28;20648;-90
2022/08/06 06:40:46;;;;;;;8.70;7.90;;;;;;;;;;5015765;28;20178;-85
2022/08/06 06:44:05;;;;;;;9.40;6.70;;;;;;;;;;5015056;28;20177;-85
2022/08/06 06:47:26;;;;;;;8.00;7.30;;;;;;;;;;5026694;28;20198;-84
2022/08/06 06:50:34;;;;;;;11.33;8.87;;;;;;;;;;4993116;28;20170;-83
2022/08/06 06:53:45;;;;;;;10.60;8.33;;;;;;;;;;5015102;28;20224;-89
2022/08/06 06:56:52;;;;;;;10.53;7.63;;;;;;;;;;5004707;28;20541;-84
2022/08/06 07:00:01;;;;;;;9.60;8.60;;;;;;;;;;5026968;28;20184;-84
2022/08/06 07:03:07;;;;;;;11.30;9.33;;;;;;;;;;5026863;28;20221;-84
2022/08/06 07:06:13;;;;;;;8.93;8.10;;;;;;;;;;5026994;28;20330;-84
2022/08/06 07:09:21;;;;;;;11.43;9.43;;;;;;;;;;4991955;28;20225;-84
2022/08/06 07:12:28;;;;;;;9.77;8.90;;;;;;;;;;5014868;28;20217;-84
2022/08/06 07:15:34;;;;;;;13.97;9.90;;;;;;;;;;5026451;28;20181;-84
2022/08/06 07:18:38;;;;;;;10.33;9.33;;;;;;;;;;5015011;28;20537;-83
2022/08/06 07:21:44;;;;;;;10.00;8.97;;;;;;;;;;5025830;28;20714;-84
2022/08/06 07:24:52;;;;;;;11.57;10.47;;;;;;;;;;5003157;28;20189;-84
2022/08/06 07:27:56;;;;;;;15.47;10.20;;;;;;;;;;5015476;28;20188;-84
2022/08/06 07:31:04;;;;;;;12.53;10.30;;;;;;;;;;5026435;28;20200;-85
2022/08/06 07:34:08;;;;;;;14.43;10.80;;;;;;;;;;5025403;28;20212;-83
2022/08/06 07:37:13;;;;;;;11.20;10.20;;;;;;;;;;5002475;28;20209;-84
2022/08/06 07:40:24;;;;;;;10.40;9.40;;;;;;;;;;5025379;28;20254;-87
2022/08/06 07:43:33;;;;;;;12.83;10.57;;;;;;;;;;5025621;28;20224;-83
2022/08/06 07:46:40;;;;;;;11.03;9.93;;;;;;;;;;5002935;28;20544;-83
2022/08/06 07:49:48;;;;;;;11.00;9.90;;;;;;;;;;5024846;28;20222;-83
2022/08/06 07:52:54;;;;;;;11.87;10.30;;;;;;;;;;5017614;28;20221;-83
2022/08/06 07:55:59;;;;;;;10.73;9.30;;;;;;;;;;5005953;28;20200;-83
2022/08/06 07:59:04;;;;;;;10.70;9.60;;;;;;;;;;5030509;28;20200;-83
2022/08/06 08:02:10;;;;;;;9.73;8.53;;;;;;;;;;4996394;28;20224;-84
2022/08/06 08:08:37;;;;;;;10.07;8.80;;;;;;;;;;5010355;28;20209;-90
2022/08/06 08:11:44;;;;;;;9.83;8.23;;;;;;;;;;5018894;28;20220;-83
2022/08/06 08:14:49;;;;;;;9.30;8.40;;;;;;;;;;5030481;28;20633;-82
2022/08/06 08:17:54;;;;;;;10.77;8.23;;;;;;;;;;5019330;28;20181;-82
2022/08/06 08:20:59;;;;;;;9.57;8.57;;;;;;;;;;5030461;28;20189;-82
2022/08/06 08:24:04;;;;;;;9.17;7.90;;;;;;;;;;5033009;28;20190;-83
2022/08/06 08:27:09;;;;;;;14.57;8.53;;;;;;;;;;5023473;28;20177;-82
2022/08/06 08:30:13;;;;;;;9.20;8.27;;;;;;;;;;5012054;28;20708;-83
2022/08/06 08:33:19;;;;;;;11.90;8.67;;;;;;;;;;5022465;28;20225;-83
2022/08/06 08:36:24;;;;;;;11.03;8.07;;;;;;;;;;5036631;28;20182;-83
2022/08/06 08:39:28;;;;;;;10.53;7.13;;;;;;;;;;5016668;28;20197;-83
2022/08/06 08:42:55;;;;;;;7.80;7.10;;;;;;;;;;4996457;28;20213;-83
2022/08/06 08:46:02;;;;;;;9.53;7.37;;;;;;;;;;5017093;28;20187;-82
2022/08/06 08:49:10;;;;;;;8.67;7.13;;;;;;;;;;4993842;28;20210;-83
2022/08/06 08:52:19;;;;;;;11.07;8.07;;;;;;;;;;5024466;28;20221;-82
2022/08/06 08:55:25;;;;;;;10.63;7.97;;;;;;;;;;5013442;28;20191;-83
2022/08/06 08:58:31;;;;;;;9.87;8.90;;;;;;;;;;5035564;28;20190;-82
2022/08/06 09:01:35;;;;;;;11.87;8.80;;;;;;;;;;5024140;28;20636;-82
2022/08/06 09:04:41;;;;;;;10.37;9.27;;;;;;;;;;5013240;28;20545;-82
2022/08/06 09:07:45;;;;;;;11.37;8.43;;;;;;;;;;5023416;28;20180;-82
2022/08/06 09:10:50;;;;;;;9.13;8.10;;;;;;;;;;5011353;28;20201;-82
2022/08/06 09:13:54;;;;;;;9.03;8.20;;;;;;;;;;5033419;28;20178;-82
2022/08/06 09:16:59;;;;;;;10.43;8.23;;;;;;;;;;5010463;28;20181;-83
2022/08/06 09:20:03;;;;;;;12.70;8.13;;;;;;;;;;5031862;28;20174;-82
2022/08/06 09:23:07;;;;;;;11.00;8.03;;;;;;;;;;5000786;28;20222;-82
2022/08/06 09:26:12;;;;;;;8.07;7.27;;;;;;;;;;5004137;28;20196;-82
2022/08/06 09:29:21;;;;;;;8.53;7.73;;;;;;;;;;5030562;28;20213;-82
2022/08/06 09:32:46;;;;;;;8.43;7.47;;;;;;;;;;5029339;28;20228;-82
2022/08/06 09:36:01;;;;;;;7.60;6.90;;;;;;;;;;4993913;28;20541;-82
2022/08/06 09:39:05;;;;;;;7.93;7.13;;;;;;;;;;5033010;28;20189;-82
2022/08/06 09:42:10;;;;;;;9.77;5.77;;;;;;;;;;5032804;28;20213;-82
2022/08/06 09:45:16;;;;;;;8.43;6.07;;;;;;;;;;5030777;28;20197;-82
2022/08/06 09:48:22;;;;;;;7.30;6.50;;;;;;;;;;5018600;28;20185;-83
2022/08/06 09:51:27;;;;;;;11.93;6.50;;;;;;;;;;5038138;28;20194;-82
2022/08/06 09:54:37;;;;;;;9.67;6.77;;;;;;;;;;5015479;28;20189;-82
2022/08/06 09:57:48;;;;;;;6.60;5.93;;;;;;;;;;5013037;28;20186;-82
2022/08/06 10:00:53;;;;;;;7.37;6.03;;;;;;;;;;5008699;28;20193;-82
2022/08/06 10:03:57;;;;;;;7.00;5.67;;;;;;;;;;5033600;28;20185;-82
2022/08/06 10:07:03;;;;;;;6.20;5.60;;;;;;;;;;4992962;28;20186;-82
2022/08/06 10:10:07;;;;;;;6.33;5.67;;;;;;;;;;5006435;28;20205;-82
2022/08/06 10:13:26;;;;;;;7.67;5.90;;;;;;;;;;5021530;28;20212;-82
2022/08/06 10:16:31;;;;;;;5.70;5.10;;;;;;;;;;5018519;28;20186;-82
2022/08/06 10:19:37;;;;;;;6.03;5.50;;;;;;;;;;5033517;28;20177;-82
2022/08/06 10:22:51;;;;;;;6.57;5.77;;;;;;;;;;5010455;28;20711;-82
2022/08/06 10:25:56;;;;;;;6.53;5.20;;;;;;;;;;5013136;28;20197;-82
2022/08/06 10:29:06;;;;;;;6.20;5.60;;;;;;;;;;5012726;28;20209;-82
2022/08/06 10:32:20;;;;;;;6.90;6.20;;;;;;;;;;5014375;28;20217;-82
2022/08/06 10:35:26;;;;;;;6.33;5.73;;;;;;;;;;5002947;28;20193;-82
2022/08/06 10:38:34;;;;;;;6.80;5.47;;;;;;;;;;5014591;28;20652;-82
2022/08/06 10:41:40;;;;;;;6.53;5.90;;;;;;;;;;5010983;28;20213;-82
2022/08/06 10:44:45;;;;;;;7.50;5.40;;;;;;;;;;5013262;28;20185;-83
2022/08/06 10:47:49;;;;;;;6.27;4.87;;;;;;;;;;5023264;28;20530;-80
2022/08/06 10:50:54;;;;;;;7.97;5.87;;;;;;;;;;4976586;28;20210;-81
2022/08/06 10:53:59;;;;;;;7.90;5.27;;;;;;;;;;5028778;28;20189;-80
2022/08/06 10:57:04;;;;;;;4.50;4.10;;;;;;;;;;5004985;28;20193;-83
2022/08/06 11:00:09;;;;;;;6.33;4.83;;;;;;;;;;5016286;28;20644;-81
2022/08/06 11:03:28;;;;;;;5.93;4.60;;;;;;;;;;5024674;28;20217;-81
2022/08/06 11:07:08;;;;;;;6.10;4.67;;;;;;;;;;5005612;28;20530;-82
2022/08/06 11:10:35;;;;;;;4.43;4.03;;;;;;;;;;5016461;28;20217;-83
2022/08/06 11:13:48;;;;;;;6.97;4.27;;;;;;;;;;5018765;28;20214;-81
2022/08/06 11:16:58;;;;;;;5.00;4.50;;;;;;;;;;5022521;28;20197;-83
2022/08/06 11:20:03;;;;;;;5.87;4.63;;;;;;;;;;5030583;28;20178;-81
2022/08/06 11:23:13;;;;;;;5.40;4.90;;;;;;;;;;5019639;28;21316;-80
2022/08/06 11:26:36;;;;;;;4.40;4.07;;;;;;;;;;5002527;28;20190;-80
2022/08/06 11:30:09;;;;;;;5.13;4.47;;;;;;;;;;5010723;28;20563;-81
2022/08/06 11:33:17;;;;;;;4.20;3.90;;;;;;;;;;5031355;28;20229;-80
2022/08/06 11:36:26;;;;;;;6.27;3.80;;;;;;;;;;5005653;28;20531;-85
2022/08/06 11:40:06;;;;;;;5.20;3.50;;;;;;;;;;5019469;28;20202;-81
2022/08/06 11:43:10;;;;;;;5.47;3.60;;;;;;;;;;4999865;28;20225;-81
2022/08/06 11:46:31;;;;;;;5.00;3.60;;;;;;;;;;5000330;28;20206;-81
2022/08/06 11:49:40;;;;;;;4.97;3.50;;;;;;;;;;5016801;28;20187;-80
2022/08/06 11:52:44;;;;;;;10.10;3.83;;;;;;;;;;4975757;28;20226;-86
2022/08/06 11:56:04;;;;;;;8.83;3.60;;;;;;;;;;4997421;28;20211;-86
2022/08/06 11:59:13;;;;;;;6.70;3.50;;;;;;;;;;5028925;28;20186;-87
2022/08/06 12:02:40;;;;;;;12.03;4.10;;;;;;;;;;5028286;28;20219;-87
2022/08/06 12:05:45;;;;;;;7.97;4.27;;;;;;;;;;5005746;28;20187;-86
2022/08/06 12:09:10;;;;;;;4.83;3.80;;;;;;;;;;5017247;28;20182;-86
2022/08/06 12:12:24;;;;;;;3.40;3.10;;;;;;;;;;4986245;28;20227;-86
2022/08/06 12:15:30;;;;;;;5.90;3.27;;;;;;;;;;4997117;28;20189;-86
2022/08/06 12:18:38;;;;;;;3.95;3.45;;;;;;;;;;4997670;28;20189;-86
2022/08/06 12:21:42;;;;;;;3.60;3.20;;;;;;;;;;5008514;28;20694;-86
2022/08/06 12:24:53;;;;;;;3.67;2.80;;;;;;;;;;4997645;28;20189;-86
2022/08/06 12:27:58;;;;;;;3.72;2.88;;;;;;;;;;5008420;28;20525;-84
2022/08/06 12:31:02;;;;;;;2.85;2.42;;;;;;;;;;5009604;28;20209;-85
2022/08/06 12:34:07;;;;;;;5.07;2.70;;;;;;;;;;5008375;28;20189;-84
2022/08/06 12:37:11;;;;;;;2.47;2.20;;;;;;;;;;4997738;28;20184;-84
2022/08/06 12:40:29;;;;;;;3.63;2.38;;;;;;;;;;5010232;28;20205;-85
2022/08/06 12:43:35;;;;;;;3.30;2.00;;;;;;;;;;4998253;28;20216;-85
2022/08/06 12:46:40;;;;;;;3.28;2.40;;;;;;;;;;4997363;28;20181;-84
2022/08/06 12:49:44;;;;;;;4.40;2.40;;;;;;;;;;4996372;28;20189;-84
2022/08/06 12:53:03;;;;;;;5.57;2.20;;;;;;;;;;5008632;28;20564;-84
2022/08/06 12:56:07;;;;;;;2.47;2.10;;;;;;;;;;4996559;28;20186;-86
2022/08/06 12:59:12;;;;;;;2.13;1.90;;;;;;;;;;4996221;28;20182;-85
2022/08/06 13:02:19;;;;;;;4.28;2.13;;;;;;;;;;4984690;28;20217;-85
2022/08/06 13:05:26;;;;;;;7.25;1.98;;;;;;;;;;4985937;28;20186;-85
2022/08/06 13:08:30;;;;;;;30.27;3.35;;;;;;;;;;5007590;28;20566;-86
2022/08/06 13:11:35;;;;;;;3.72;2.00;;;;;;;;;;5007194;28;20235;-86
2022/08/06 13:14:50;;;;;;;2.45;1.90;;;;;;;;;;4996238;28;20186;-86
2022/08/06 13:18:07;;;;;;;15.35;3.58;;;;;;;;;;4996076;28;20189;-86
2022/08/06 13:21:23;;;;;;;8.20;4.90;;;;;;;;;;5000794;28;20694;-86
2022/08/06 13:24:28;;;;;;;16.88;3.40;;;;;;;;;;5011275;28;20191;-86
2022/08/06 13:27:38;;;;;;;3.85;1.63;;;;;;;;;;5015460;28;20269;-86
2022/08/06 13:30:44;;;;;;;1.90;1.63;;;;;;;;;;5014990;28;20221;-86
2022/08/06 13:34:00;;;;;;;3.10;2.03;;;;;;;;;;5015218;28;20185;-86
2022/08/06 13:37:04;;;;;;;3.92;1.85;;;;;;;;;;4993043;28;20660;-86
2022/08/06 13:40:08;;;;;;;4.38;2.10;;;;;;;;;;5015113;28;20542;-86
2022/08/06 13:43:13;;;;;;;4.18;2.13;;;;;;;;;;5015300;28;20225;-86
2022/08/06 13:46:17;;;;;;;3.28;1.90;;;;;;;;;;5016238;28;20207;-86
2022/08/06 13:49:21;;;;;;;2.00;1.77;;;;;;;;;;5003507;28;20181;-86
2022/08/06 13:52:25;;;;;;;2.53;1.90;;;;;;;;;;5015691;28;20219;-85
2022/08/06 13:55:30;;;;;;;5.97;2.30;;;;;;;;;;5026517;28;20179;-86
2022/08/06 13:58:34;;;;;;;8.00;2.13;;;;;;;;;;5016022;28;20184;-86
2022/08/06 14:01:38;;;;;;;2.03;1.50;;;;;;;;;;5016992;28;20212;-84
2022/08/06 14:04:42;;;;;;;4.35;1.80;;;;;;;;;;5026839;28;20176;-85
2022/08/06 14:07:46;;;;;;;1.80;1.48;;;;;;;;;;5015210;28;20177;-85
2022/08/06 14:10:57;;;;;;;7.18;1.80;;;;;;;;;;5111270;27;21249;-76
2022/08/06 14:14:01;;;;;;;4.00;1.85;;;;;;;;;;5110481;28;20202;-76
2022/08/06 14:17:05;;;;;;;3.70;1.75;;;;;;;;;;5111018;28;20174;-76
2022/08/06 14:20:10;;;;;;;2.72;1.67;;;;;;;;;;5110992;28;20177;-77
2022/08/06 14:23:14;;;;;;;1.90;1.60;;;;;;;;;;5110943;28;20178;-77
2022/08/06 14:26:18;;;;;;;4.05;1.75;;;;;;;;;;5110830;28;20196;-77
2022/08/06 14:29:22;;;;;;;2.35;1.52;;;;;;;;;;5111037;28;20204;-77
2022/08/06 14:32:26;;;;;;;1.75;1.50;;;;;;;;;;5110625;28;20220;-76
2022/08/06 14:35:30;;;;;;;3.08;1.67;;;;;;;;;;5110793;28;20172;-77
2022/08/06 14:38:34;;;;;;;1.65;1.55;;;;;;;;;;5109356;28;20581;-77
2022/08/06 14:45:05;;;;;;;1.70;1.60;;;;;;;;;;5110467;28;20181;-77
2022/08/06 14:48:09;;;;;;;2.58;1.88;;;;;;;;;;5098128;28;20645;-75
2022/08/06 14:51:14;;;;;;;2.50;1.77;;;;;;;;;;5110308;28;20208;-77
2022/08/06 14:54:18;;;;;;;2.50;2.30;;;;;;;;;;5110166;28;20203;-76
2022/08/06 14:57:22;;;;;;;2.45;1.80;;;;;;;;;;5109400;28;20196;-77
2022/08/06 15:00:26;;;;;;;3.15;1.83;;;;;;;;;;5110420;28;20171;-77
2022/08/06 15:03:30;;;;;;;2.13;1.88;;;;;;;;;;5110514;28;20520;-77
2022/08/06 15:06:34;;;;;;;2.40;1.70;;;;;;;;;;5110411;28;20625;-76
2022/08/06 15:09:39;;;;;;;5.60;1.92;;;;;;;;;;5109310;28;20224;-77
2022/08/06 15:12:43;;;;;;;4.20;1.75;;;;;;;;;;5110164;28;20190;-78
2022/08/06 15:15:47;;;;;;;2.50;1.50;;;;;;;;;;5109979;28;20184;-77
2022/08/06 15:18:52;;;;;;;5.55;1.63;;;;;;;;;;5110114;28;20178;-77
2022/08/06 15:21:56;;;;;;;3.28;1.60;;;;;;;;;;5097393;28;20553;-77
2022/08/06 15:25:00;;;;;;;6.57;1.60;;;;;;;;;;5096305;28;20191;-77
2022/08/06 15:28:04;;;;;;;2.22;1.40;;;;;;;;;;5096252;28;20186;-77
2022/08/06 15:31:08;;;;;;;3.78;1.30;;;;;;;;;;5095276;28;20242;-77
2022/08/06 15:34:14;;;;;;;7.97;2.35;;;;;;;;;;5096044;28;20649;-77
2022/08/06 15:37:21;;;;;;;1.83;1.60;;;;;;;;;;5095188;28;20180;-77
2022/08/06 15:40:26;;;;;;;5.55;1.83;;;;;;;;;;5096220;28;20168;-77
2022/08/06 15:43:30;;;;;;;2.45;1.60;;;;;;;;;;5095031;28;20544;-77
2022/08/06 15:46:34;;;;;;;2.65;1.65;;;;;;;;;;5095934;28;20175;-77
2022/08/06 15:49:38;;;;;;;5.47;1.73;;;;;;;;;;5096030;28;20196;-77
2022/08/06 15:52:42;;;;;;;27.67;2.80;;;;;;;;;;5080941;28;20538;-77
2022/08/06 15:55:46;;;;;;;4.25;1.80;;;;;;;;;;5074474;28;20525;-77
2022/08/06 15:58:53;;;;;;;1.95;1.30;;;;;;;;;;5075816;28;20176;-78
2022/08/06 16:01:57;;;;;;;16.65;1.80;;;;;;;;;;5074780;28;20213;-78
2022/08/06 16:05:01;;;;;;;2.85;1.70;;;;;;;;;;5075403;28;20179;-78
2022/08/06 16:08:06;;;;;;;2.38;1.48;;;;;;;;;;5075435;28;20173;-77
2022/08/06 16:11:11;;;;;;;2.05;1.63;;;;;;;;;;5074916;28;20229;-77
2022/08/06 16:14:15;;;;;;;3.67;1.58;;;;;;;;;;5075340;28;20185;-78
2022/08/06 16:17:19;;;;;;;4.57;1.55;;;;;;;;;;5075221;28;20176;-78
2022/08/06 16:20:23;;;;;;;1.52;1.33;;;;;;;;;;5074327;28;20173;-78
2022/08/06 16:23:27;;;;;;;2.40;1.42;;;;;;;;;;5075255;28;20539;-77
2022/08/06 16:26:31;;;;;;;1.93;1.67;;;;;;;;;;5075630;28;20183;-78
2022/08/06 16:29:35;;;;;;;3.40;1.67;;;;;;;;;;5075400;28;20681;-78
2022/08/06 16:32:39;;;;;;;2.17;1.50;;;;;;;;;;5084911;28;20227;-77
2022/08/06 16:35:45;;;;;;;2.87;1.60;;;;;;;;;;5075489;28;20196;-78
2022/08/06 16:38:49;;;;;;;3.17;1.53;;;;;;;;;;5075740;28;20197;-77
2022/08/06 16:41:54;;;;;;;3.03;1.53;;;;;;;;;;5075717;28;20211;-78
2022/08/06 16:44:58;;;;;;;4.57;1.60;;;;;;;;;;5075393;28;20625;-78
2022/08/06 16:48:02;;;;;;;1.50;1.40;;;;;;;;;;5076040;28;20179;-78
2022/08/06 16:51:07;;;;;;;2.43;1.43;;;;;;;;;;5078137;28;20210;-78
2022/08/06 16:54:11;;;;;;;2.07;1.57;;;;;;;;;;5075528;28;20188;-78
2022/08/06 16:57:16;;;;;;;2.20;1.40;;;;;;;;;;5080728;28;20560;-79
2022/08/06 17:00:20;;;;;;;1.77;1.50;;;;;;;;;;5082058;28;20178;-78
2022/08/06 17:03:24;;;;;;;5.20;1.70;;;;;;;;;;5088168;28;20183;-77
2022/08/06 17:06:29;;;;;;;3.83;1.80;;;;;;;;;;5094279;28;20536;-77
2022/08/06 17:09:33;;;;;;;2.33;1.90;;;;;;;;;;5094387;28;20672;-78
2022/08/06 17:12:38;;;;;;;2.00;1.57;;;;;;;;;;5095172;28;20220;-78
2022/08/06 17:15:42;;;;;;;2.90;1.70;;;;;;;;;;5076118;28;20187;-78
2022/08/06 17:18:45;;;;;;;4.03;1.67;;;;;;;;;;5080993;28;20189;-77
2022/08/06 17:21:50;;;;;;;2.50;1.90;;;;;;;;;;5080735;28;20212;-77
2022/08/06 17:24:54;;;;;;;3.00;1.50;;;;;;;;;;5078934;28;20186;-78
2022/08/06 17:27:58;;;;;;;2.03;1.50;;;;;;;;;;5069624;28;20182;-78
2022/08/06 17:31:03;;;;;;;2.80;1.70;;;;;;;;;;5087701;28;20569;-77
2022/08/06 17:34:07;;;;;;;4.83;1.47;;;;;;;;;;5081966;28;20536;-78
2022/08/06 17:37:11;;;;;;;1.40;1.30;;;;;;;;;;5073590;28;20177;-78
2022/08/06 17:40:24;;;;;;;3.27;1.57;;;;;;;;;;5073920;28;20197;-77
2022/08/06 17:43:28;;;;;;;2.97;1.83;;;;;;;;;;5072498;28;20171;-77
2022/08/06 17:46:32;;;;;;;3.97;2.07;;;;;;;;;;5073219;28;20179;-77
2022/08/06 17:49:38;;;;;;;3.50;1.83;;;;;;;;;;5061512;28;20181;-77
2022/08/06 17:52:42;;;;;;;2.43;1.60;;;;;;;;;;5073638;28;20201;-77
2022/08/06 17:55:47;;;;;;;2.60;1.40;;;;;;;;;;5073142;28;20177;-77
2022/08/06 17:58:51;;;;;;;6.53;1.50;;;;;;;;;;5073480;28;20183;-77
2022/08/06 18:01:56;;;;;;;3.30;1.40;;;;;;;;;;5073060;28;20552;-78
2022/08/06 18:05:00;;;;;;;1.80;1.30;;;;;;;;;;5073623;28;20175;-77
2022/08/06 18:08:04;;;;;;;6.90;1.97;;;;;;;;;;5074443;28;20514;-77
2022/08/06 18:11:09;;;;;;;3.20;1.50;;;;;;;;;;5073882;28;20215;-78
2022/08/06 18:14:12;;;;;;;4.03;1.37;;;;;;;;;;5074232;28;20183;-78
2022/08/06 18:17:17;;;;;;;8.43;1.50;;;;;;;;;;5075225;28;20175;-76
2022/08/06 18:20:22;;;;;;;2.47;1.53;;;;;;;;;;5073670;28;20175;-77
2022/08/06 18:23:26;;;;;;;2.77;1.30;;;;;;;;;;5072406;28;20184;-77
2022/08/06 18:26:30;;;;;;;2.40;1.40;;;;;;;;;;5060974;28;20191;-77
2022/08/06 18:29:34;;;;;;;1.43;1.27;;;;;;;;;;5072316;28;20199;-77
2022/08/06 18:32:38;;;;;;;2.07;1.20;;;;;;;;;;5060384;28;20210;-77
2022/08/06 18:35:42;;;;;;;2.07;1.50;;;;;;;;;;5073106;28;20658;-77
2022/08/06 18:38:46;;;;;;;2.80;1.30;;;;;;;;;;5072956;28;20179;-78
2022/08/06 18:41:50;;;;;;;3.73;1.43;;;;;;;;;;5072865;28;20211;-78
2022/08/06 18:44:54;;;;;;;3.20;1.40;;;;;;;;;;5072057;28;20175;-77